Time;durP1;ratioP1;P1;durP2;ratioP2;P2;SDS_P1;SDS_P2;PMS_P1;PMS_P2;Temp;Humidity;BMP_temperature;BMP_pressure;BME280_temperature;BME280_humidity;BME280_pressure;Samples;Min_cycle;Max_cycle;Signal;HPM_P1;HPM_P2
2022/06/29 00:02:00;;;;;;;1.15;0.57;;;;;;;23.19;44.38;101681.94;5085360;28;20024;-60
2022/06/29 00:04:26;;;;;;;1.05;0.60;;;;;;;23.00;44.37;101641.72;5085219;28;20033;-60
2022/06/29 00:06:51;;;;;;;2.78;1.02;;;;;;;23.00;44.47;101648.00;5085780;28;20028;-60
2022/06/29 00:09:16;;;;;;;1.50;0.60;;;;;;;23.17;44.12;101670.44;5084117;28;20063;-60
2022/06/29 00:11:41;;;;;;;1.10;0.60;;;;;;;23.14;44.41;101673.50;5072350;28;20504;-60
2022/06/29 00:14:07;;;;;;;1.52;0.63;;;;;;;23.16;44.33;101675.03;5047223;28;20017;-60
2022/06/29 00:16:32;;;;;;;1.38;0.82;;;;;;;23.15;44.47;101673.34;5064620;28;20067;-60
2022/06/29 00:18:57;;;;;;;1.55;0.75;;;;;;;22.94;44.08;101636.00;5065335;28;20040;-60
2022/06/29 00:21:22;;;;;;;1.08;0.60;;;;;;;23.14;44.66;101666.22;5064043;28;20104;-60
2022/06/29 00:23:48;;;;;;;1.95;1.00;;;;;;;22.92;44.08;101624.47;5063944;28;20028;-60
2022/06/29 00:26:13;;;;;;;1.58;0.80;;;;;;;23.14;44.12;101662.66;5063877;28;20025;-60
2022/06/29 00:28:38;;;;;;;1.52;0.80;;;;;;;23.10;43.77;101655.91;5063870;28;20025;-60
2022/06/29 00:31:03;;;;;;;2.28;0.60;;;;;;;23.12;44.06;101659.28;5064751;28;20021;-60
2022/06/29 00:33:29;;;;;;;1.65;0.80;;;;;;;23.11;44.07;101658.44;5063993;28;20048;-60
2022/06/29 00:35:54;;;;;;;1.90;0.93;;;;;;;22.90;44.04;101626.53;5063855;28;20056;-60
2022/06/29 00:38:19;;;;;;;1.48;1.23;;;;;;;23.10;43.89;101656.72;5064022;28;20020;-60
2022/06/29 00:40:45;;;;;;;2.38;1.65;;;;;;;23.11;44.08;101654.91;5065052;28;20107;-60
2022/06/29 00:43:10;;;;;;;1.77;0.73;;;;;;;23.10;44.12;101648.59;5063533;28;20017;-60
2022/06/29 00:45:36;;;;;;;2.05;1.15;;;;;;;22.88;43.94;101614.13;5063292;28;20116;-59
2022/06/29 00:48:02;;;;;;;1.98;1.00;;;;;;;22.85;44.01;101606.34;5065067;28;20032;-60
2022/06/29 00:50:30;;;;;;;2.03;0.73;;;;;;;23.09;44.08;101646.06;5046985;28;20397;-60
2022/06/29 00:53:01;;;;;;;2.20;1.17;;;;;;;23.04;44.16;101641.19;5065242;28;20029;-59
2022/06/29 00:55:29;;;;;;;1.13;0.63;;;;;;;22.84;44.15;101602.78;5063634;28;20035;-60
2022/06/29 00:57:58;;;;;;;4.40;0.90;;;;;;;23.07;44.04;101640.84;5067913;28;20108;-60
2022/06/29 01:00:23;;;;;;;1.70;0.70;;;;;;;22.89;43.88;101615.81;5067124;28;20063;-59
2022/06/29 01:02:49;;;;;;;1.00;0.55;;;;;;;23.07;43.72;101640.00;5072063;28;20025;-60
2022/06/29 01:05:15;;;;;;;1.05;0.63;;;;;;;22.82;43.85;101598.59;5081763;28;20473;-60
2022/06/29 01:07:40;;;;;;;1.73;1.08;;;;;;;23.06;44.09;101639.13;5070764;28;20040;-60
2022/06/29 01:10:06;;;;;;;1.08;0.70;;;;;;;22.87;43.84;101598.88;5068674;28;20021;-60
2022/06/29 01:12:31;;;;;;;1.95;0.82;;;;;;;23.06;43.70;101630.16;5088295;28;20027;-60
2022/06/29 01:14:57;;;;;;;1.08;0.88;;;;;;;23.04;44.05;101621.38;5087570;28;20035;-60
2022/06/29 01:17:22;;;;;;;1.70;0.70;;;;;;;23.05;43.87;101631.19;5088649;28;20493;-60
2022/06/29 01:19:48;;;;;;;1.58;0.70;;;;;;;23.05;43.91;101628.47;5058901;28;20032;-60
2022/06/29 01:22:15;;;;;;;2.47;0.80;;;;;;;23.04;43.85;101627.63;5067356;28;20032;-60
2022/06/29 01:24:44;;;;;;;1.60;0.80;;;;;;;23.03;43.84;101634.09;5050219;28;20078;-60
2022/06/29 01:27:09;;;;;;;3.03;1.00;;;;;;;23.03;43.88;101625.94;5068268;28;20055;-60
2022/06/29 01:29:35;;;;;;;1.13;0.77;;;;;;;22.89;44.10;101599.53;5067909;28;20108;-60
2022/06/29 01:32:00;;;;;;;1.05;0.60;;;;;;;23.01;43.82;101621.72;5068103;28;20024;-60
2022/06/29 01:34:27;;;;;;;2.58;0.90;;;;;;;23.02;43.95;101626.09;5068120;28;20033;-60
2022/06/29 01:36:53;;;;;;;1.40;0.75;;;;;;;22.93;43.81;101607.16;5078261;28;20028;-60
2022/06/29 01:39:18;;;;;;;1.20;0.63;;;;;;;23.01;43.83;101622.56;5086735;28;20052;-60
2022/06/29 01:41:44;;;;;;;1.38;0.65;;;;;;;23.01;43.82;101625.25;5086643;28;20053;-60
2022/06/29 01:44:09;;;;;;;0.98;0.57;;;;;;;23.01;43.90;101616.28;5069777;28;20043;-60
2022/06/29 01:46:34;;;;;;;2.35;0.70;;;;;;;23.00;43.83;101611.91;5087279;28;20028;-60
2022/06/29 01:49:00;;;;;;;1.17;0.75;;;;;;;23.01;43.77;101616.28;5088131;28;20027;-60
2022/06/29 01:51:25;;;;;;;1.02;0.70;;;;;;;23.00;43.99;101612.72;5086673;28;20027;-60
2022/06/29 01:53:50;;;;;;;1.65;0.77;;;;;;;23.00;43.90;101611.91;5087743;28;20081;-60
2022/06/29 01:56:16;;;;;;;1.25;0.75;;;;;;;22.99;43.79;101610.22;5087719;28;20185;-60
2022/06/29 01:58:41;;;;;;;0.95;0.63;;;;;;;22.99;43.82;101607.50;5087984;28;20020;-60
2022/06/29 02:01:06;;;;;;;1.45;0.63;;;;;;;22.98;43.82;101603.06;5087419;28;20024;-60
2022/06/29 02:03:32;;;;;;;1.00;0.50;;;;;;;22.75;43.63;101563.19;5087602;28;20021;-60
2022/06/29 02:05:57;;;;;;;1.58;0.95;;;;;;;22.77;43.62;101561.16;5086389;28;20024;-60
2022/06/29 02:08:22;;;;;;;1.48;0.90;;;;;;;22.97;43.86;101590.53;5086185;28;20039;-60
2022/06/29 02:10:48;;;;;;;1.45;0.80;;;;;;;22.79;43.67;101566.41;5076595;28;20040;-60
2022/06/29 02:13:13;;;;;;;1.73;0.98;;;;;;;22.95;43.59;101588.88;5066126;28;20355;-60
2022/06/29 02:15:38;;;;;;;0.90;0.70;;;;;;;22.95;43.71;101591.56;5065712;28;20053;-60
2022/06/29 02:18:03;;;;;;;3.47;0.73;;;;;;;22.92;43.79;101588.38;5068546;28;20048;-60
2022/06/29 02:20:29;;;;;;;1.45;1.10;;;;;;;22.95;43.58;101591.56;5067651;28;20033;-60
2022/06/29 02:22:55;;;;;;;3.35;0.80;;;;;;;22.94;43.59;101587.19;5067658;28;20025;-60
2022/06/29 02:25:20;;;;;;;1.70;0.70;;;;;;;22.75;43.60;101556.94;5065485;28;20434;-60
2022/06/29 02:27:46;;;;;;;1.08;0.60;;;;;;;22.93;43.55;101582.75;5066098;28;20025;-60
2022/06/29 02:30:13;;;;;;;1.90;0.82;;;;;;;22.74;43.63;101552.53;5065220;28;20056;-60
2022/06/29 02:35:22;;;;;;;1.50;1.02;;;;;;;22.92;43.84;101578.38;5065561;28;20054;-60
2022/06/29 02:37:47;;;;;;;2.10;0.90;;;;;;;22.87;43.77;101574.47;5067159;28;20088;-60
2022/06/29 02:40:13;;;;;;;1.88;0.63;;;;;;;22.74;43.70;101549.81;5065540;28;20075;-60
2022/06/29 02:42:38;;;;;;;3.78;1.10;;;;;;;22.92;43.61;101574.81;5065444;28;20032;-60
2022/06/29 02:45:04;;;;;;;1.48;0.82;;;;;;;22.86;43.80;101568.22;5064768;28;20028;-60
2022/06/29 02:47:29;;;;;;;1.88;0.82;;;;;;;22.90;43.61;101571.44;5065400;28;20116;-60
2022/06/29 02:49:54;;;;;;;1.25;0.65;;;;;;;22.69;43.48;101537.66;5065402;28;20024;-60
2022/06/29 02:52:20;;;;;;;1.38;0.60;;;;;;;22.76;43.64;101550.47;5065452;28;20027;-60
2022/06/29 02:54:45;;;;;;;0.90;0.60;;;;;;;22.70;43.64;101538.50;5066368;28;20028;-60
2022/06/29 02:57:10;;;;;;;1.23;0.90;;;;;;;22.66;43.68;101540.72;5048706;28;20060;-60
2022/06/29 02:59:35;;;;;;;2.80;1.00;;;;;;;22.69;43.24;101542.22;5065017;28;20024;-60
2022/06/29 03:02:01;;;;;;;1.00;0.73;;;;;;;22.88;43.77;101559.91;5064926;28;20021;-60
2022/06/29 03:04:26;;;;;;;1.25;0.70;;;;;;;22.65;43.74;101524.63;5064828;28;20025;-60
2022/06/29 03:06:51;;;;;;;1.60;0.88;;;;;;;22.86;43.75;101556.53;5065161;28;20028;-60
2022/06/29 03:09:17;;;;;;;0.80;0.70;;;;;;;22.84;43.82;101553.97;5066353;28;20456;-60
2022/06/29 03:11:42;;;;;;;1.90;0.90;;;;;;;22.86;43.93;101556.53;5081980;28;20021;-60
2022/06/29 03:14:07;;;;;;;1.25;0.70;;;;;;;22.58;43.84;101510.94;5086202;28;20029;-60
2022/06/29 03:16:32;;;;;;;1.15;0.80;;;;;;;22.82;43.83;101550.63;5084662;28;20025;-60
2022/06/29 03:18:58;;;;;;;1.25;0.77;;;;;;;22.63;43.87;101510.41;5067737;28;20093;-60
2022/06/29 03:21:23;;;;;;;2.65;0.60;;;;;;;22.80;43.87;101539.09;5086342;28;20050;-60
2022/06/29 03:23:49;;;;;;;0.98;0.60;;;;;;;22.62;43.70;101506.84;5067817;28;20024;-60
2022/06/29 03:26:14;;;;;;;2.05;0.98;;;;;;;22.61;43.83;101505.16;5086086;28;20039;-60
2022/06/29 03:28:39;;;;;;;1.75;0.80;;;;;;;22.39;43.80;101466.19;5084680;28;20488;-60
2022/06/29 03:31:05;;;;;;;2.15;0.95;;;;;;;22.82;43.68;101533.50;5084198;28;20021;-60
2022/06/29 03:33:30;;;;;;;2.53;0.98;;;;;;;22.60;44.15;101498.06;5086110;28;20050;-60
2022/06/29 03:35:56;;;;;;;1.13;0.70;;;;;;;22.81;43.87;101529.97;5084316;28;20028;-60
2022/06/29 03:38:21;;;;;;;1.67;0.70;;;;;;;22.80;43.79;101533.66;5085728;28;20029;-60
2022/06/29 03:40:46;;;;;;;1.48;0.75;;;;;;;22.61;44.02;101497.03;5084279;28;20100;-60
2022/06/29 03:43:12;;;;;;;1.33;0.68;;;;;;;22.56;43.79;101494.03;5085402;28;20024;-60
2022/06/29 03:45:37;;;;;;;2.42;0.90;;;;;;;22.79;43.96;101525.72;5083729;28;20039;-60
2022/06/29 03:48:03;;;;;;;1.05;0.70;;;;;;;22.78;44.15;101533.03;5085901;28;20016;-60
2022/06/29 03:50:28;;;;;;;2.15;1.00;;;;;;;22.55;43.93;101494.19;5084363;28;20028;-60
2022/06/29 03:52:54;;;;;;;2.67;0.70;;;;;;;22.57;44.09;101500.28;5084479;28;20519;-60
2022/06/29 03:55:19;;;;;;;2.70;0.90;;;;;;;22.56;44.19;101495.91;5085296;28;20119;-60
2022/06/29 03:57:45;;;;;;;2.88;1.00;;;;;;;22.76;44.30;101526.06;5084564;28;20051;-60
2022/06/29 04:00:11;;;;;;;1.05;0.65;;;;;;;22.71;44.25;101519.31;5083954;28;20145;-60
2022/06/29 04:02:37;;;;;;;1.65;0.90;;;;;;;22.72;44.32;101520.16;5085584;28;20081;-60
2022/06/29 04:05:04;;;;;;;1.20;0.88;;;;;;;22.74;44.06;101515.41;5083937;28;20052;-60
2022/06/29 04:07:32;;;;;;;1.50;0.80;;;;;;;22.71;44.17;101518.47;5085543;28;20031;-60
2022/06/29 04:10:00;;;;;;;2.15;0.90;;;;;;;22.69;44.36;101513.25;5082614;28;20044;-60
2022/06/29 04:12:31;;;;;;;1.45;1.00;;;;;;;22.72;44.19;101517.44;5063738;28;20063;-60
2022/06/29 04:14:56;;;;;;;1.25;0.60;;;;;;;22.70;44.26;101514.94;5064875;28;20043;-60
2022/06/29 04:17:22;;;;;;;1.95;0.98;;;;;;;22.71;44.15;101516.63;5047253;28;20016;-60
2022/06/29 04:19:47;;;;;;;1.20;1.00;;;;;;;22.70;44.33;101511.38;5063780;28;20024;-60
2022/06/29 04:22:12;;;;;;;1.67;0.70;;;;;;;22.69;44.52;101517.84;5065093;28;20037;-60
2022/06/29 04:24:38;;;;;;;2.83;1.48;;;;;;;22.68;44.16;101513.41;5063750;28;20056;-60
2022/06/29 04:27:03;;;;;;;1.92;0.90;;;;;;;22.68;44.29;101518.84;5065007;28;20048;-60
2022/06/29 04:29:28;;;;;;;2.72;0.80;;;;;;;22.51;44.37;101498.28;5063559;28;20075;-60
2022/06/29 04:31:54;;;;;;;0.93;0.80;;;;;;;22.67;44.24;101509.03;5064780;28;20271;-60
2022/06/29 04:34:19;;;;;;;0.98;0.70;;;;;;;22.65;44.56;101511.09;5063779;28;20017;-60
2022/06/29 04:36:44;;;;;;;1.27;0.75;;;;;;;22.65;44.51;101513.78;5064923;28;20033;-60
2022/06/29 04:39:10;;;;;;;2.35;0.70;;;;;;;22.62;44.71;101508.72;5064828;28;20083;-60
2022/06/29 04:41:35;;;;;;;1.92;0.90;;;;;;;22.44;44.40;101476.47;5063437;28;20560;-60
2022/06/29 04:44:00;;;;;;;1.85;0.90;;;;;;;22.62;44.43;101506.00;5064574;28;20119;-60
2022/06/29 04:46:25;;;;;;;1.10;0.70;;;;;;;22.62;44.30;101498.72;5064102;28;20028;-60
2022/06/29 04:48:56;;;;;;;1.00;0.70;;;;;;;22.62;44.53;101503.31;5065258;28;20074;-60
2022/06/29 04:51:23;;;;;;;2.10;0.70;;;;;;;22.39;44.62;101455.34;5064793;28;20028;-59
2022/06/29 04:53:48;;;;;;;2.38;0.75;;;;;;;22.38;44.39;101448.22;5064792;28;20084;-60
2022/06/29 04:56:16;;;;;;;1.38;0.63;;;;;;;22.43;44.74;101459.38;5063429;28;20028;-60
2022/06/29 04:58:42;;;;;;;2.20;0.70;;;;;;;22.59;44.40;101488.22;5047022;28;20048;-60
2022/06/29 05:01:08;;;;;;;1.45;0.70;;;;;;;22.63;44.48;101494.97;5064403;28;20032;-60
2022/06/29 05:03:33;;;;;;;1.20;0.60;;;;;;;22.62;44.59;101493.28;5064184;28;20036;-60
2022/06/29 05:05:58;;;;;;;1.10;0.65;;;;;;;22.61;44.80;101494.34;5059986;28;20077;-60
2022/06/29 05:08:24;;;;;;;1.20;0.80;;;;;;;22.60;44.66;101494.50;5044568;28;20029;-60
2022/06/29 05:10:49;;;;;;;1.35;0.80;;;;;;;22.63;44.66;101496.84;5064000;28;20024;-60
2022/06/29 05:13:15;;;;;;;1.92;0.80;;;;;;;22.63;44.79;101496.84;5084235;28;20489;-60
2022/06/29 05:15:40;;;;;;;1.92;0.90;;;;;;;22.61;44.25;101491.63;5082853;28;20080;-60
2022/06/29 05:18:06;;;;;;;1.27;0.98;;;;;;;22.63;44.85;101494.97;5084453;28;20027;-60
2022/06/29 05:20:31;;;;;;;3.00;0.80;;;;;;;22.45;44.57;101457.31;5083339;28;20021;-60
2022/06/29 05:22:57;;;;;;;1.63;0.90;;;;;;;22.61;44.76;101474.50;5083244;28;20028;-60
2022/06/29 05:25:22;;;;;;;1.38;0.60;;;;;;;22.39;44.37;101452.63;5066084;28;20044;-60
2022/06/29 05:27:47;;;;;;;1.95;0.90;;;;;;;22.40;44.42;101448.06;5083272;28;20135;-60
2022/06/29 05:30:13;;;;;;;2.28;0.90;;;;;;;22.64;44.58;101484.97;5082723;28;20355;-60
2022/06/29 05:32:38;;;;;;;1.10;0.73;;;;;;;22.63;44.52;101488.72;5083123;28;20022;-60
2022/06/29 05:35:04;;;;;;;1.92;0.98;;;;;;;22.64;44.49;101485.84;5083143;28;20021;-60
2022/06/29 05:37:30;;;;;;;1.02;0.77;;;;;;;22.64;44.17;101482.25;5084597;28;20027;-60
2022/06/29 05:39:55;;;;;;;2.28;0.70;;;;;;;22.64;44.37;101482.25;5083066;28;20025;-60
2022/06/29 05:42:21;;;;;;;1.10;0.80;;;;;;;22.59;44.12;101474.69;5084009;28;20036;-60
2022/06/29 05:44:46;;;;;;;2.28;0.70;;;;;;;22.64;44.26;101477.72;5086576;28;20030;-60
2022/06/29 05:47:11;;;;;;;1.75;1.08;;;;;;;22.64;44.45;101480.44;5086408;28;20078;-60
2022/06/29 05:49:37;;;;;;;0.88;0.80;;;;;;;22.64;44.17;101471.41;5086594;28;20088;-60
2022/06/29 05:52:03;;;;;;;2.00;0.80;;;;;;;22.42;44.34;101440.56;5087722;28;20020;-60
2022/06/29 05:54:29;;;;;;;1.95;0.70;;;;;;;22.60;44.23;101470.09;5087623;28;20028;-60
2022/06/29 05:56:54;;;;;;;1.70;0.88;;;;;;;22.44;44.21;101439.38;5086419;28;20024;-60
2022/06/29 05:59:19;;;;;;;1.35;1.00;;;;;;;22.40;44.45;101438.06;5087482;28;20033;-60
2022/06/29 06:01:44;;;;;;;1.33;0.80;;;;;;;22.64;44.51;101469.59;5087176;28;20115;-60
2022/06/29 06:04:10;;;;;;;1.10;0.80;;;;;;;22.65;44.20;101484.81;5087389;28;20040;-60
2022/06/29 06:06:35;;;;;;;2.95;1.10;;;;;;;22.45;44.45;101448.34;5087512;28;20033;-60
2022/06/29 06:09:00;;;;;;;1.48;0.95;;;;;;;22.44;44.46;101446.69;5087646;28;20032;-60
2022/06/29 06:11:26;;;;;;;1.38;0.93;;;;;;;22.42;44.55;101435.16;5072734;28;20029;-60
2022/06/29 06:13:51;;;;;;;1.02;0.90;;;;;;;22.65;44.44;101481.28;5048792;28;20028;-60
2022/06/29 06:16:16;;;;;;;1.15;0.82;;;;;;;22.44;44.43;101436.69;5065749;28;20025;-60
2022/06/29 06:18:42;;;;;;;2.28;0.80;;;;;;;22.39;44.00;101428.25;5066218;28;20505;-60
2022/06/29 06:21:07;;;;;;;1.55;0.82;;;;;;;22.66;44.34;101477.53;5067136;28;20044;-60
2022/06/29 06:23:32;;;;;;;1.35;0.90;;;;;;;22.66;44.42;101478.38;5067109;28;20110;-60
2022/06/29 06:25:57;;;;;;;1.98;0.90;;;;;;;22.42;44.40;101438.72;5065684;28;20029;-60
2022/06/29 06:28:23;;;;;;;1.85;0.80;;;;;;;22.66;44.48;101475.66;5049274;28;20048;-60
2022/06/29 06:30:48;;;;;;;2.00;1.00;;;;;;;22.67;44.41;101471.91;5066714;28;20088;-60
2022/06/29 06:33:13;;;;;;;1.25;0.90;;;;;;;22.50;44.46;101442.41;5066954;28;20025;-60
2022/06/29 06:35:38;;;;;;;1.83;1.00;;;;;;;22.44;44.35;101427.72;5048471;28;20021;-61
2022/06/29 06:38:04;;;;;;;1.58;0.95;;;;;;;22.68;44.71;101465.50;5066846;28;20025;-60
2022/06/29 06:43:13;;;;;;;1.85;1.00;;;;;;;22.69;44.51;101471.75;5065384;28;20080;-60
2022/06/29 06:45:38;;;;;;;2.95;1.00;;;;;;;22.68;44.42;101468.19;5066352;28;20021;-60
2022/06/29 06:48:04;;;;;;;1.38;0.98;;;;;;;22.68;44.55;101470.91;5066902;28;20073;-60
2022/06/29 06:50:29;;;;;;;1.50;0.90;;;;;;;22.70;44.44;101465.31;5066752;28;20021;-60
2022/06/29 06:52:55;;;;;;;3.65;1.42;;;;;;;22.68;44.28;101473.63;5065053;28;20092;-60
2022/06/29 06:55:20;;;;;;;1.02;0.80;;;;;;;22.70;44.38;101471.56;5065488;28;20033;-60
2022/06/29 06:57:45;;;;;;;2.42;1.00;;;;;;;22.69;44.46;101469.03;5065337;28;20056;-60
2022/06/29 07:00:11;;;;;;;3.72;1.13;;;;;;;22.71;44.54;101475.13;5064360;28;20021;-60
2022/06/29 07:02:36;;;;;;;2.10;1.10;;;;;;;22.49;44.21;101432.59;5064780;28;20039;-60
2022/06/29 07:05:03;;;;;;;2.55;1.20;;;;;;;22.72;44.45;101474.06;5065788;28;20079;-60
2022/06/29 07:07:28;;;;;;;1.67;0.98;;;;;;;22.52;44.39;101435.78;5066345;28;20047;-60
2022/06/29 07:09:53;;;;;;;3.10;1.15;;;;;;;22.74;44.65;101465.78;5066725;28;20028;-60
2022/06/29 07:12:19;;;;;;;2.30;1.42;;;;;;;22.73;44.51;101470.38;5084822;28;20062;-60
2022/06/29 07:14:44;;;;;;;1.70;1.02;;;;;;;22.75;44.48;101471.03;5085744;28;20035;-60
2022/06/29 07:17:09;;;;;;;1.38;1.10;;;;;;;22.75;44.50;101465.59;5085873;28;20020;-60
2022/06/29 07:19:35;;;;;;;2.10;0.80;;;;;;;22.50;44.38;101420.72;5085897;28;20021;-60
2022/06/29 07:22:00;;;;;;;2.63;1.17;;;;;;;22.74;44.31;101457.66;5085085;28;20024;-60
2022/06/29 07:24:26;;;;;;;1.23;0.90;;;;;;;22.76;44.49;101451.00;5067994;28;20024;-60
2022/06/29 07:26:51;;;;;;;1.60;1.00;;;;;;;22.78;44.25;101458.97;5086117;28;20455;-61
2022/06/29 07:29:16;;;;;;;1.77;1.00;;;;;;;22.78;44.30;101462.53;5085734;28;20040;-60
2022/06/29 07:31:42;;;;;;;2.15;1.35;;;;;;;22.79;44.19;101463.38;5067549;28;20056;-60
2022/06/29 07:34:07;;;;;;;1.60;0.95;;;;;;;22.80;44.47;101460.47;5085717;28;20024;-60
2022/06/29 07:36:32;;;;;;;4.38;1.95;;;;;;;22.82;44.55;101454.88;5084639;28;20028;-60
2022/06/29 07:38:57;;;;;;;3.85;1.30;;;;;;;22.81;44.51;101462.19;5085734;28;20110;-60
2022/06/29 07:41:23;;;;;;;2.60;0.93;;;;;;;22.65;44.73;101433.31;5085493;28;20053;-60
2022/06/29 07:43:48;;;;;;;3.13;0.88;;;;;;;22.83;44.45;101462.81;5085199;28;20036;-60
2022/06/29 07:46:13;;;;;;;3.30;1.90;;;;;;;22.88;44.44;101448.72;5084910;28;20024;-60
2022/06/29 07:48:39;;;;;;;2.65;1.20;;;;;;;22.90;44.49;101463.00;5084401;28;20029;-60
2022/06/29 07:51:04;;;;;;;2.40;1.10;;;;;;;22.91;44.83;101449.25;5084321;28;20031;-60
2022/06/29 07:53:31;;;;;;;3.88;1.20;;;;;;;22.93;44.91;101449.88;5085653;28;20021;-60
2022/06/29 07:55:56;;;;;;;3.15;1.00;;;;;;;22.97;45.03;101446.81;5084051;28;20021;-60
2022/06/29 07:58:21;;;;;;;2.17;1.05;;;;;;;22.76;45.41;101409.50;5085536;28;20115;-60
2022/06/29 08:00:47;;;;;;;2.55;1.33;;;;;;;23.00;45.54;101443.75;5084581;28;20029;-60
2022/06/29 08:03:13;;;;;;;2.42;1.30;;;;;;;23.00;45.43;101446.47;5084370;28;20017;-60
2022/06/29 08:05:38;;;;;;;3.28;1.10;;;;;;;22.98;46.07;101441.22;5083473;28;20028;-60
2022/06/29 08:08:04;;;;;;;3.20;0.95;;;;;;;22.83;46.34;101414.03;5085703;28;20036;-60
2022/06/29 08:10:31;;;;;;;1.92;1.15;;;;;;;23.06;46.66;101443.84;5077973;28;20032;-60
2022/06/29 08:12:56;;;;;;;1.45;0.95;;;;;;;23.07;46.37;101440.13;5065160;28;20028;-60
2022/06/29 08:15:22;;;;;;;1.17;0.90;;;;;;;23.07;46.19;101444.72;5063516;28;20021;-60
2022/06/29 08:17:48;;;;;;;1.27;0.88;;;;;;;23.09;46.37;101445.34;5063840;28;20017;-60
2022/06/29 08:20:14;;;;;;;2.03;1.00;;;;;;;23.09;46.49;101438.06;5065223;28;20048;-59
2022/06/29 08:22:39;;;;;;;1.40;1.00;;;;;;;23.08;47.17;101439.09;5047283;28;20025;-60
2022/06/29 08:25:05;;;;;;;1.50;0.90;;;;;;;23.10;46.51;101436.19;5064822;28;20032;-60
2022/06/29 08:27:33;;;;;;;2.17;1.20;;;;;;;23.13;46.71;101439.38;5065479;28;20060;-60
2022/06/29 08:29:59;;;;;;;1.45;0.90;;;;;;;23.14;46.66;101440.22;5064796;28;20025;-60
2022/06/29 08:32:25;;;;;;;5.60;1.10;;;;;;;23.15;46.53;101444.59;5063129;28;20037;-60
2022/06/29 08:34:51;;;;;;;1.38;1.08;;;;;;;23.14;46.50;101438.34;5065081;28;20021;-59
2022/06/29 08:37:17;;;;;;;1.50;1.08;;;;;;;23.02;46.69;101419.97;5064766;28;20027;-60
2022/06/29 08:39:42;;;;;;;1.98;1.15;;;;;;;23.15;46.34;101436.47;5064714;28;20014;-60
2022/06/29 08:42:07;;;;;;;1.75;0.98;;;;;;;23.16;46.53;101435.47;5064659;28;20036;-60
2022/06/29 08:44:34;;;;;;;1.52;0.88;;;;;;;23.17;46.22;101442.56;5064593;28;20032;-60
2022/06/29 08:47:01;;;;;;;1.50;1.02;;;;;;;23.19;46.53;101438.66;5064315;28;20044;-60
2022/06/29 08:49:26;;;;;;;1.27;1.00;;;;;;;23.19;46.24;101435.94;5063459;28;20029;-60
2022/06/29 08:51:54;;;;;;;2.83;1.00;;;;;;;23.20;46.25;101432.19;5064645;28;20531;-60
2022/06/29 08:54:20;;;;;;;1.55;1.00;;;;;;;23.20;46.16;101432.19;5063355;28;20114;-60
2022/06/29 08:56:46;;;;;;;2.42;1.15;;;;;;;23.22;46.04;101432.00;5063412;28;20025;-59
2022/06/29 08:59:11;;;;;;;1.63;1.00;;;;;;;23.22;46.38;101420.31;5064677;28;20458;-60
2022/06/29 09:01:37;;;;;;;3.13;1.10;;;;;;;23.24;46.31;101429.13;5063976;28;20052;-60
2022/06/29 09:04:02;;;;;;;2.03;0.90;;;;;;;23.25;46.29;101425.38;5064832;28;20029;-60
2022/06/29 09:06:28;;;;;;;1.25;0.95;;;;;;;23.19;46.30;101407.94;5064209;28;20035;-60
2022/06/29 09:08:53;;;;;;;1.45;0.93;;;;;;;23.05;46.21;101389.78;5063502;28;20029;-60
2022/06/29 09:11:28;;;;;;;1.27;0.80;;;;;;;23.27;46.20;101426.88;5078289;28;20047;-60
2022/06/29 09:14:11;;;;;;;1.58;0.90;;;;;;;23.28;46.12;101416.84;5083304;28;20092;-60
2022/06/29 09:17:02;;;;;;;1.40;0.93;;;;;;;23.30;46.13;101417.53;5082907;28;20032;-60
2022/06/29 09:19:34;;;;;;;2.15;0.98;;;;;;;23.31;45.96;101419.19;5087272;28;20032;-60
2022/06/29 09:21:59;;;;;;;1.15;0.90;;;;;;;23.30;45.95;101414.81;5088217;28;20021;-60
2022/06/29 09:24:29;;;;;;;1.60;1.10;;;;;;;23.31;45.98;101417.31;5086906;28;20044;-60
2022/06/29 09:26:57;;;;;;;2.22;1.00;;;;;;;23.31;46.07;101422.75;5086899;28;20035;-60
2022/06/29 09:29:25;;;;;;;2.03;1.10;;;;;;;23.32;46.25;101418.16;5092530;28;20020;-60
2022/06/29 09:32:06;;;;;;;1.40;0.85;;;;;;;23.32;46.04;101410.91;5075894;28;20028;-60
2022/06/29 09:34:32;;;;;;;1.88;0.95;;;;;;;23.09;46.10;101380.25;5093919;28;20080;-59
2022/06/29 09:36:58;;;;;;;2.88;1.27;;;;;;;23.33;46.09;101411.72;5091972;28;20043;-59
2022/06/29 09:39:32;;;;;;;2.45;0.77;;;;;;;23.16;46.16;101382.06;5088003;28;20029;-60
2022/06/29 09:41:58;;;;;;;2.45;1.00;;;;;;;23.34;45.88;101422.38;5087934;28;20048;-60
2022/06/29 09:44:23;;;;;;;1.65;1.13;;;;;;;23.16;46.33;101387.47;5086572;28;20027;-60
2022/06/29 09:46:49;;;;;;;2.40;1.20;;;;;;;23.33;45.83;101414.44;5086254;28;20110;-60
2022/06/29 09:49:15;;;;;;;2.60;1.10;;;;;;;23.37;45.91;101413.03;5087242;28;20020;-59
2022/06/29 09:51:41;;;;;;;4.93;1.23;;;;;;;23.37;46.25;101404.91;5086239;28;20059;-60
2022/06/29 09:54:07;;;;;;;1.95;1.00;;;;;;;23.39;46.10;101408.25;5087972;28;20020;-60
2022/06/29 09:56:34;;;;;;;2.17;0.95;;;;;;;23.40;46.18;101401.78;5087710;28;20025;-60
2022/06/29 09:59:00;;;;;;;1.95;0.98;;;;;;;23.17;46.21;101370.16;5087879;28;20024;-59
2022/06/29 10:04:12;;;;;;;3.00;1.10;;;;;;;23.40;45.87;101405.34;5086776;28;20032;-59
2022/06/29 10:06:37;;;;;;;1.90;0.90;;;;;;;23.41;46.07;101401.63;5086366;28;20032;-59
2022/06/29 10:09:03;;;;;;;0.90;0.80;;;;;;;23.42;45.82;101402.47;5087654;28;20038;-59
2022/06/29 10:14:42;;;;;;;2.60;1.52;;;;;;;23.43;46.12;101399.56;5067444;28;20094;-59
2022/06/29 10:17:19;;;;;;;1.88;1.17;;;;;;;23.44;46.05;101394.97;5066785;28;20108;-59
2022/06/29 10:20:06;;;;;;;1.23;0.93;;;;;;;23.46;46.13;101392.94;5067457;28;20037;-59
2022/06/29 10:22:31;;;;;;;1.23;0.98;;;;;;;23.45;46.29;101386.66;5067062;28;20013;-60
2022/06/29 10:25:02;;;;;;;2.53;1.20;;;;;;;23.48;46.36;101387.31;5066023;28;20024;-60
2022/06/29 10:27:27;;;;;;;1.45;1.30;;;;;;;23.47;46.36;101385.63;5065513;28;20036;-59
2022/06/29 10:30:19;;;;;;;1.48;1.15;;;;;;;23.50;46.28;101393.41;5049039;28;20021;-59
2022/06/29 10:32:45;;;;;;;1.33;0.93;;;;;;;23.27;45.98;101352.78;5065170;28;20028;-59
2022/06/29 10:35:10;;;;;;;1.05;0.90;;;;;;;23.50;45.94;101386.09;5067141;28;20017;-59
2022/06/29 10:37:53;;;;;;;1.67;0.90;;;;;;;23.16;46.03;101325.09;5066778;28;20028;-59
2022/06/29 10:40:24;;;;;;;1.70;1.10;;;;;;;23.51;46.10;101376.06;5066406;28;20041;-59
2022/06/29 10:43:08;;;;;;;1.13;0.90;;;;;;;23.30;46.08;101344.25;5066778;28;20031;-59
2022/06/29 10:45:36;;;;;;;1.70;0.82;;;;;;;23.52;45.97;101384.03;5066220;28;20114;-59
2022/06/29 10:48:06;;;;;;;2.05;0.85;;;;;;;23.53;46.27;101379.44;5048940;28;20033;-59
2022/06/29 10:50:31;;;;;;;1.05;0.88;;;;;;;23.53;46.24;101379.44;5065340;28;20032;-59
2022/06/29 10:53:00;;;;;;;1.67;0.95;;;;;;;23.53;46.05;101379.44;5066802;28;20024;-59
2022/06/29 10:55:28;;;;;;;;;;;;;;;23.53;46.06;101374.00;5066859;28;20048;-59
2022/06/29 10:57:54;;;;;;;1.08;0.80;;;;;;;23.55;46.29;101371.97;5065592;28;20376;-59
2022/06/29 11:00:25;;;;;;;1.20;0.90;;;;;;;23.56;46.03;101368.22;5066268;28;20025;-59
2022/06/29 11:02:51;;;;;;;1.60;0.90;;;;;;;23.38;46.13;101336.03;5064716;28;20059;-59
2022/06/29 11:05:16;;;;;;;1.58;1.20;;;;;;;23.57;45.99;101359.88;5066126;28;20025;-61
2022/06/29 11:13:23;;;;;;;0.75;0.73;;;;;;;23.63;46.21;101361.00;5084918;28;20447;-59
2022/06/29 11:15:49;;;;;;;1.00;0.90;;;;;;;23.62;46.14;101354.72;5085413;28;20035;-59
2022/06/29 11:18:20;;;;;;;1.42;0.80;;;;;;;23.63;46.16;101355.56;5085042;28;20046;-59
2022/06/29 11:20:48;;;;;;;1.33;1.00;;;;;;;23.64;46.19;101357.25;5084958;28;20028;-59
2022/06/29 11:23:16;;;;;;;0.82;0.80;;;;;;;23.64;46.19;101357.25;5086036;28;20024;-59
2022/06/29 11:25:45;;;;;;;1.83;0.90;;;;;;;23.60;46.25;101351.34;5085867;28;20025;-59
2022/06/29 11:28:10;;;;;;;0.77;0.70;;;;;;;23.45;46.03;101329.66;5085982;28;20436;-59
2022/06/29 11:30:36;;;;;;;1.58;1.00;;;;;;;23.48;46.30;101330.31;5084125;28;20324;-59
2022/06/29 11:33:12;;;;;;;1.33;0.90;;;;;;;23.43;46.16;101315.44;5084394;28;20020;-60
2022/06/29 11:35:38;;;;;;;2.00;0.80;;;;;;;23.63;46.30;101353.69;5084465;28;20086;-59
2022/06/29 11:38:05;;;;;;;1.40;0.95;;;;;;;23.65;46.21;101348.94;5084471;28;20263;-59